createdAt,value
2018-11-12T00:00:58.895Z,92.21
2018-11-12T00:03:32.585Z,92.16
2018-11-12T00:06:05.743Z,92.00
2018-11-12T00:08:40.461Z,91.72
2018-11-12T00:11:14.573Z,91.57
2018-11-12T00:13:48.299Z,91.59
2018-11-12T00:16:21.974Z,91.64
2018-11-12T00:18:55.399Z,91.70
2018-11-12T00:21:28.422Z,91.68
2018-11-12T00:24:01.374Z,91.69
2018-11-12T00:26:35.674Z,91.71
2018-11-12T00:29:08.485Z,91.71
2018-11-12T00:31:43.966Z,91.62
2018-11-12T00:34:22.011Z,91.68
2018-11-12T00:36:55.938Z,91.74
2018-11-12T00:39:32.560Z,91.77
2018-11-12T00:42:05.482Z,91.91
2018-11-12T00:44:38.314Z,91.96
2018-11-12T00:47:11.357Z,92.02
2018-11-12T00:49:44.181Z,92.07
2018-11-12T00:52:17.475Z,92.09
2018-11-12T00:54:51.170Z,92.04
2018-11-12T00:57:24.841Z,92.11
2018-11-12T00:59:57.262Z,92.16
2018-11-12T01:02:44.486Z,92.31
2018-11-12T01:05:18.024Z,92.42
2018-11-12T01:07:51.292Z,92.63
2018-11-12T01:10:42.573Z,92.76
2018-11-12T01:13:21.030Z,92.71
2018-11-12T01:15:53.506Z,92.64
2018-11-12T01:18:28.914Z,92.75
2018-11-12T01:21:05.657Z,92.75
2018-11-12T01:23:39.722Z,92.86
2018-11-12T01:26:14.213Z,93.07
2018-11-12T01:28:47.253Z,93.12
2018-11-12T01:31:19.809Z,93.18
2018-11-12T01:33:53.856Z,93.28
2018-11-12T01:36:26.381Z,93.33
2018-11-12T01:38:59.863Z,93.39
2018-11-12T01:41:32.645Z,93.47
2018-11-12T01:44:06.398Z,93.54
2018-11-12T01:46:38.990Z,93.69
2018-11-12T01:49:12.963Z,93.73
2018-11-12T01:51:45.577Z,93.67
2018-11-12T01:54:19.220Z,93.68
2018-11-12T01:56:53.750Z,93.70
2018-11-12T01:59:26.419Z,93.75
2018-11-12T02:01:59.825Z,93.80
2018-11-12T02:04:34.872Z,94.01
2018-11-12T02:07:08.250Z,94.02
2018-11-12T02:09:40.828Z,94.14
2018-11-12T02:12:13.760Z,94.32
2018-11-12T02:14:47.225Z,94.60
2018-11-12T02:17:19.825Z,94.71
2018-11-12T02:19:54.508Z,95.02
2018-11-12T02:22:27.330Z,95.20
2018-11-12T02:24:59.846Z,95.28
2018-11-12T02:27:32.966Z,95.44
2018-11-12T02:30:23.897Z,95.63
2018-11-12T02:32:56.435Z,95.78
2018-11-12T02:35:29.403Z,96.01
2018-11-12T02:38:02.201Z,96.24
2018-11-12T02:40:35.014Z,96.42
2018-11-12T02:43:10.068Z,96.56
2018-11-12T02:45:45.716Z,96.65
2018-11-12T02:48:19.704Z,96.88
2018-11-12T02:50:53.254Z,97.01
2018-11-12T02:53:26.070Z,97.14
2018-11-12T02:55:58.684Z,97.24
2018-11-12T02:58:32.602Z,97.36
2018-11-12T03:01:05.538Z,97.51
2018-11-12T03:03:41.833Z,97.56
2018-11-12T03:06:15.131Z,97.55
2018-11-12T03:08:47.543Z,97.59
2018-11-12T03:11:20.232Z,97.57
2018-11-12T03:13:52.840Z,97.59
2018-11-12T03:16:25.989Z,97.63
2018-11-12T03:18:59.131Z,97.54
2018-11-12T03:21:33.402Z,97.46
2018-11-12T03:24:08.281Z,97.40
2018-11-12T03:26:41.045Z,97.43
2018-11-12T03:29:13.607Z,97.46
2018-11-12T03:31:46.637Z,97.41
2018-11-12T03:34:20.486Z,97.31
2018-11-12T03:36:53.153Z,97.29
2018-11-12T03:39:25.988Z,97.33
2018-11-12T03:41:58.539Z,97.35
2018-11-12T03:44:31.725Z,97.43
2018-11-12T03:47:07.143Z,97.55
2018-11-12T03:49:39.792Z,97.62
2018-11-12T03:52:13.346Z,97.63
2018-11-12T03:54:46.975Z,97.68
2018-11-12T03:57:19.542Z,97.70
2018-11-12T03:59:52.873Z,97.69
2018-11-12T04:02:27.526Z,97.72
2018-11-12T04:05:00.171Z,97.78
2018-11-12T04:07:32.889Z,97.82
2018-11-12T04:10:14.476Z,97.90
2018-11-12T04:12:47.909Z,98.00
2018-11-12T04:15:23.179Z,98.03
2018-11-12T04:17:56.179Z,98.04
2018-11-12T04:20:28.950Z,98.16
2018-11-12T04:23:04.490Z,98.16
2018-11-12T04:25:39.339Z,98.21
2018-11-12T04:28:11.938Z,98.42
2018-11-12T04:30:45.334Z,98.65
2018-11-12T04:33:18.156Z,98.34
2018-11-12T04:35:51.685Z,98.13
2018-11-12T04:38:24.337Z,98.09
2018-11-12T04:40:57.760Z,98.35
2018-11-12T04:43:30.646Z,98.09
2018-11-12T04:46:04.059Z,97.98
2018-11-12T04:48:38.506Z,97.98
2018-11-12T04:51:11.883Z,98.03
2018-11-12T04:53:45.331Z,98.08
2018-11-12T04:56:17.853Z,98.15
2018-11-12T04:58:50.885Z,98.21
2018-11-12T05:01:23.481Z,98.37
2018-11-12T05:03:56.027Z,98.47
2018-11-12T05:06:32.544Z,98.50
2018-11-12T05:09:10.546Z,98.59
2018-11-12T05:11:44.197Z,98.68
2018-11-12T05:14:18.905Z,98.82
2018-11-12T05:16:51.775Z,98.91
2018-11-12T05:19:25.091Z,99.01
2018-11-12T05:21:58.046Z,99.09
2018-11-12T05:24:30.809Z,99.15
2018-11-12T05:27:05.656Z,99.18
2018-11-12T05:29:39.234Z,99.14
2018-11-12T05:32:11.948Z,99.20
2018-11-12T05:34:44.686Z,99.27
2018-11-12T05:37:19.875Z,99.35
2018-11-12T05:39:53.357Z,99.50
2018-11-12T05:42:26.109Z,99.59
2018-11-12T05:45:01.037Z,99.70
2018-11-12T05:47:35.693Z,99.75
2018-11-12T05:50:18.468Z,99.83
2018-11-12T05:52:55.060Z,99.91
2018-11-12T05:55:28.674Z,100.00
2018-11-12T05:58:04.720Z,100.00
2018-11-12T06:00:37.469Z,100.00
2018-11-12T06:03:10.303Z,100.00
2018-11-12T06:05:50.366Z,100.00
2018-11-12T06:08:27.138Z,100.00
2018-11-12T06:11:01.015Z,100.00
2018-11-12T06:13:33.831Z,100.00
2018-11-12T06:16:08.574Z,100.00
2018-11-12T06:18:43.494Z,100.00
2018-11-12T06:21:18.746Z,100.00
2018-11-12T06:23:51.497Z,100.00
2018-11-12T06:26:24.828Z,100.00
2018-11-12T06:29:01.834Z,100.00
2018-11-12T06:31:36.007Z,100.00
2018-11-12T06:34:08.570Z,100.00
2018-11-12T06:36:42.234Z,100.00
2018-11-12T06:39:19.451Z,100.00
2018-11-12T06:41:52.438Z,100.00
2018-11-12T06:44:25.470Z,100.00
2018-11-12T06:46:58.940Z,100.00
2018-11-12T06:49:36.369Z,100.00
2018-11-12T06:52:17.073Z,100.00
2018-11-12T06:54:52.465Z,100.00
2018-11-12T06:57:29.738Z,100.00
2018-11-12T07:00:06.679Z,100.00
2018-11-12T07:02:47.132Z,100.00
2018-11-12T07:05:20.314Z,100.00
2018-11-12T07:07:53.746Z,100.00
2018-11-12T07:10:37.469Z,100.00
2018-11-12T07:13:14.866Z,100.00
2018-11-12T07:15:51.995Z,100.00
2018-11-12T07:18:27.310Z,100.00
2018-11-12T07:20:59.831Z,100.00
2018-11-12T07:23:34.319Z,100.00
2018-11-12T07:26:11.387Z,100.00
2018-11-12T07:28:51.589Z,100.00
2018-11-12T07:31:26.321Z,100.00
2018-11-12T07:34:00.650Z,100.00
2018-11-12T07:36:33.825Z,100.00
2018-11-12T07:39:13.141Z,100.00
2018-11-12T07:41:47.342Z,100.00
2018-11-12T07:44:22.182Z,100.00
2018-11-12T07:46:55.621Z,100.00
2018-11-12T07:49:29.985Z,100.00
2018-11-12T07:52:05.503Z,100.00
2018-11-12T07:54:48.265Z,100.00
2018-11-12T07:57:21.845Z,100.00
2018-11-12T07:59:55.482Z,100.00
2018-11-12T08:02:28.769Z,100.00
2018-11-12T08:05:04.137Z,100.00
2018-11-12T08:07:40.071Z,100.00
2018-11-12T08:10:16.751Z,100.00
2018-11-12T08:13:06.226Z,100.00
2018-11-12T08:15:38.869Z,100.00
2018-11-12T08:18:13.065Z,100.00
2018-11-12T08:20:47.659Z,100.00
2018-11-12T08:23:22.088Z,100.00
2018-11-12T08:25:54.718Z,100.00
2018-11-12T08:28:29.403Z,100.00
2018-11-12T08:31:11.307Z,100.00
2018-11-12T08:33:59.850Z,100.00
2018-11-12T08:36:37.210Z,100.00
2018-11-12T08:39:16.772Z,100.00
2018-11-12T08:41:51.024Z,100.00
2018-11-12T08:44:27.334Z,100.00
2018-11-12T08:47:01.548Z,100.00
2018-11-12T08:49:34.958Z,100.00
2018-11-12T08:52:14.868Z,100.00
2018-11-12T08:54:50.393Z,100.00
2018-11-12T08:57:35.447Z,100.00
2018-11-12T09:00:13.951Z,99.71
2018-11-12T09:02:48.516Z,99.03
2018-11-12T09:05:22.729Z,98.13
2018-11-12T09:08:00.105Z,97.11
2018-11-12T09:10:39.303Z,96.42
2018-11-12T09:13:13.746Z,96.03
2018-11-12T09:15:46.845Z,95.60
2018-11-12T09:18:23.477Z,95.29
2018-11-12T09:20:59.164Z,94.97
2018-11-12T09:23:33.946Z,94.10
2018-11-12T09:26:10.414Z,93.30
2018-11-12T09:28:53.896Z,92.44
2018-11-12T09:31:27.778Z,91.20
2018-11-12T09:34:00.706Z,89.68
2018-11-12T09:36:34.796Z,89.50
2018-11-12T09:39:12.528Z,88.87
2018-11-12T09:41:52.762Z,88.67
2018-11-12T09:44:29.607Z,88.96
2018-11-12T09:47:04.160Z,88.37
2018-11-12T09:49:42.418Z,87.42
2018-11-12T09:52:20.613Z,85.98
2018-11-12T09:54:54.130Z,86.10
2018-11-12T09:57:32.472Z,85.05
2018-11-12T10:00:10.996Z,85.50
2018-11-12T10:02:46.771Z,84.51
2018-11-12T10:05:34.772Z,81.00
2018-11-12T10:08:13.716Z,80.45
2018-11-12T10:10:56.157Z,80.83
2018-11-12T10:13:33.573Z,80.51
2018-11-12T10:16:13.909Z,79.68
2018-11-12T10:18:48.452Z,79.54
2018-11-12T10:21:23.255Z,79.83
2018-11-12T10:23:56.559Z,80.17
2018-11-12T10:26:30.209Z,80.94
2018-11-12T10:29:03.443Z,81.17
2018-11-12T10:31:37.631Z,81.20
2018-11-12T10:34:13.767Z,81.16
2018-11-12T10:36:47.990Z,81.02
2018-11-12T10:39:25.753Z,81.03
2018-11-12T10:42:00.539Z,80.71
2018-11-12T10:44:37.990Z,78.25
2018-11-12T10:47:16.247Z,76.74
2018-11-12T10:49:51.088Z,76.22
2018-11-12T10:52:32.773Z,76.56
2018-11-12T10:55:11.283Z,76.18
2018-11-12T10:57:47.830Z,76.51
2018-11-12T11:00:36.776Z,75.13
2018-11-12T11:03:17.863Z,74.21
2018-11-12T11:06:05.446Z,74.40
2018-11-12T11:08:43.304Z,74.69
2018-11-12T11:11:22.978Z,74.61
2018-11-12T11:13:59.445Z,75.17
2018-11-12T11:16:32.826Z,75.43
2018-11-12T11:19:10.858Z,74.94
2018-11-12T11:21:45.038Z,75.14
2018-11-12T11:24:18.505Z,74.59
2018-11-12T11:26:53.850Z,74.66
2018-11-12T11:29:37.128Z,74.32
2018-11-12T11:32:14.662Z,70.58
2018-11-12T11:34:51.279Z,69.72
2018-11-12T11:37:25.351Z,70.05
2018-11-12T11:39:59.444Z,68.90
2018-11-12T11:42:33.445Z,66.92
2018-11-12T11:45:13.235Z,67.60
2018-11-12T11:47:50.764Z,68.27
2018-11-12T11:50:31.638Z,68.50
2018-11-12T11:53:06.381Z,68.57
2018-11-12T11:55:42.452Z,68.17
2018-11-12T11:58:17.091Z,67.41
2018-11-12T12:00:59.823Z,67.10
2018-11-12T12:03:46.423Z,67.47
2018-11-12T12:06:24.627Z,65.85
2018-11-12T12:09:00.821Z,66.03
2018-11-12T12:11:39.228Z,66.67
2018-11-12T12:14:15.000Z,66.71
2018-11-12T12:17:01.328Z,67.24
2018-11-12T12:19:42.123Z,67.75
2018-11-12T12:22:19.398Z,67.60
2018-11-12T12:24:59.635Z,67.14
2018-11-12T12:27:37.690Z,67.18
2018-11-12T12:30:29.720Z,66.95
2018-11-12T12:33:12.379Z,66.81
2018-11-12T12:35:51.386Z,66.88
2018-11-12T12:38:30.665Z,66.81
2018-11-12T12:41:21.390Z,66.70
2018-11-12T12:43:56.946Z,67.32
2018-11-12T12:46:48.852Z,67.26
2018-11-12T12:49:27.177Z,69.06
2018-11-12T12:52:05.158Z,70.97
2018-11-12T12:54:48.422Z,72.51
2018-11-12T12:57:39.514Z,74.60
2018-11-12T13:00:21.231Z,76.68
2018-11-12T13:02:55.615Z,78.67
2018-11-12T13:05:32.565Z,81.00
2018-11-12T13:08:07.088Z,81.67
2018-11-12T13:10:47.615Z,82.80
2018-11-12T13:13:22.045Z,84.70
2018-11-12T13:16:06.113Z,86.72
2018-11-12T13:18:46.361Z,88.00
2018-11-12T13:21:22.882Z,88.45
2018-11-12T13:23:58.267Z,88.79
2018-11-12T13:26:34.926Z,90.41
2018-11-12T13:29:11.952Z,90.40
2018-11-12T13:31:46.946Z,91.01
2018-11-12T13:34:22.745Z,91.53
2018-11-12T13:36:59.865Z,91.51
2018-11-12T13:39:35.431Z,92.24
2018-11-12T13:42:08.934Z,92.50
2018-11-12T13:44:42.337Z,92.71
2018-11-12T13:47:18.443Z,93.03
2018-11-12T13:50:00.680Z,93.51
2018-11-12T13:52:42.392Z,93.79
2018-11-12T13:55:33.766Z,93.94
2018-11-12T13:58:07.930Z,93.53
2018-11-12T14:00:42.497Z,93.38
2018-11-12T14:03:19.691Z,93.43
2018-11-12T14:05:54.935Z,93.41
2018-11-12T14:08:30.964Z,93.03
2018-11-12T14:11:09.508Z,93.14
2018-11-12T14:13:44.573Z,93.39
2018-11-12T14:16:22.938Z,93.37
2018-11-12T14:18:57.854Z,93.34
2018-11-12T14:21:34.725Z,93.44
2018-11-12T14:24:10.635Z,93.49
2018-11-12T14:27:06.358Z,93.53
2018-11-12T14:29:40.648Z,93.71
2018-11-12T14:32:19.962Z,94.01
2018-11-12T14:34:57.790Z,94.12
2018-11-12T14:37:38.627Z,94.34
2018-11-12T14:40:16.416Z,94.63
2018-11-12T14:42:57.615Z,94.88
2018-11-12T14:45:30.763Z,95.12
2018-11-12T14:48:06.603Z,95.31
2018-11-12T14:50:42.673Z,95.52
2018-11-12T14:53:16.633Z,95.71
2018-11-12T14:55:51.245Z,95.87
2018-11-12T14:58:24.880Z,96.04
2018-11-12T15:00:59.029Z,96.26
2018-11-12T15:03:33.752Z,96.48
2018-11-12T15:06:11.363Z,96.66
2018-11-12T15:08:47.030Z,96.85
2018-11-12T15:11:22.576Z,97.00
2018-11-12T15:13:56.299Z,97.11
2018-11-12T15:16:31.261Z,97.29
2018-11-12T15:19:06.688Z,97.49
2018-11-12T15:21:41.586Z,97.71
2018-11-12T15:24:16.474Z,97.88
2018-11-12T15:26:56.627Z,97.95
2018-11-12T15:29:29.563Z,97.98
2018-11-12T15:32:06.793Z,98.02
2018-11-12T15:34:42.481Z,98.04
2018-11-12T15:37:18.455Z,97.98
2018-11-12T15:39:53.368Z,97.91
2018-11-12T15:42:26.404Z,97.82
2018-11-12T15:45:06.449Z,97.71
2018-11-12T15:47:44.050Z,97.64
2018-11-12T15:50:36.770Z,97.58
2018-11-12T15:53:16.197Z,97.48
2018-11-12T15:55:56.213Z,97.42
2018-11-12T15:58:34.757Z,97.37
2018-11-12T16:01:10.725Z,97.32
2018-11-12T16:03:46.302Z,97.34
2018-11-12T16:06:24.400Z,97.31
2018-11-12T16:09:04.806Z,97.25
2018-11-12T16:11:38.864Z,97.16
2018-11-12T16:14:16.439Z,97.12
2018-11-12T16:16:50.417Z,97.17
2018-11-12T16:19:25.817Z,97.24
2018-11-12T16:22:01.178Z,97.29
2018-11-12T16:24:35.717Z,97.35
2018-11-12T16:27:12.418Z,97.41
2018-11-12T16:29:46.711Z,97.46
2018-11-12T16:32:28.909Z,97.51
2018-11-12T16:35:12.308Z,97.60
2018-11-12T16:37:50.835Z,97.74
2018-11-12T16:40:38.920Z,97.86
2018-11-12T16:43:18.196Z,97.96
2018-11-12T16:45:52.676Z,98.05
2018-11-12T16:48:52.973Z,98.08
2018-11-12T16:51:33.238Z,98.17
2018-11-12T16:54:10.665Z,98.21
2018-11-12T16:56:53.067Z,98.23
2018-11-12T16:59:27.715Z,98.19
2018-11-12T17:02:13.759Z,98.12
2018-11-12T17:04:49.669Z,97.99
2018-11-12T17:07:52.765Z,97.88
2018-11-12T17:10:31.038Z,97.78
2018-11-12T17:13:09.402Z,97.72
2018-11-12T17:15:45.781Z,97.70
2018-11-12T17:18:47.859Z,97.67
2018-11-12T17:21:26.411Z,97.62
2018-11-12T17:24:03.674Z,97.60
2018-11-12T17:26:42.371Z,97.66
2018-11-12T17:29:17.068Z,97.68
2018-11-12T17:31:51.928Z,97.67
2018-11-12T17:34:28.177Z,97.69
2018-11-12T17:37:18.538Z,97.66
2018-11-12T17:39:58.097Z,97.66
2018-11-12T17:42:37.399Z,97.67
2018-11-12T17:45:16.224Z,97.63
2018-11-12T17:47:51.504Z,97.58
2018-11-12T17:50:29.187Z,97.54
2018-11-12T17:53:08.832Z,97.51
2018-11-12T17:55:51.119Z,97.44
2018-11-12T17:58:32.342Z,97.40
2018-11-12T18:01:10.776Z,97.32
2018-11-12T18:03:46.785Z,97.23
2018-11-12T18:06:29.363Z,97.19
2018-11-12T18:09:14.601Z,97.11
2018-11-12T18:11:58.478Z,97.12
2018-11-12T18:14:35.412Z,97.16
2018-11-12T18:17:16.617Z,97.12
2018-11-12T18:19:55.471Z,97.08
2018-11-12T18:22:32.682Z,96.99
2018-11-12T18:25:17.261Z,96.84
2018-11-12T18:28:09.676Z,96.76
2018-11-12T18:31:10.112Z,96.66
2018-11-12T18:33:48.373Z,96.64
2018-11-12T18:36:29.633Z,96.54
2018-11-12T18:39:15.798Z,96.52
2018-11-12T18:41:58.334Z,96.51
2018-11-12T18:44:45.429Z,96.55
2018-11-12T18:47:25.065Z,96.62
2018-11-12T18:50:05.941Z,97.15
2018-11-12T18:52:46.904Z,96.83
2018-11-12T18:55:29.212Z,96.59
2018-11-12T18:58:10.505Z,96.58
2018-11-12T19:00:46.356Z,96.69
2018-11-12T19:03:22.966Z,96.79
2018-11-12T19:06:00.645Z,96.92
2018-11-12T19:08:38.175Z,97.04
2018-11-12T19:11:35.034Z,97.15
2018-11-12T19:14:08.921Z,97.21
2018-11-12T19:16:46.661Z,97.22
2018-11-12T19:19:27.853Z,97.26
2018-11-12T19:22:08.219Z,97.44
2018-11-12T19:24:58.707Z,97.63
2018-11-12T19:27:35.034Z,97.73
2018-11-12T19:30:51.178Z,97.79
2018-11-12T19:33:28.611Z,97.86
2018-11-12T19:36:06.174Z,97.92
2018-11-12T19:38:46.217Z,98.01
2018-11-12T19:41:20.493Z,98.05
2018-11-12T19:43:57.689Z,98.07
2018-11-12T19:46:37.368Z,98.10
2018-11-12T19:49:20.662Z,98.16
2018-11-12T19:51:58.881Z,98.29
2018-11-12T19:54:35.971Z,98.43
2018-11-12T19:57:12.145Z,98.56
2018-11-12T19:59:53.801Z,98.62
2018-11-12T20:02:28.563Z,98.66
2018-11-12T20:05:03.881Z,98.66
2018-11-12T20:07:41.860Z,98.70
2018-11-12T20:10:21.653Z,98.73
2018-11-12T20:13:04.435Z,98.78
2018-11-12T20:15:47.795Z,98.84
2018-11-12T20:18:26.424Z,98.91
2018-11-12T20:21:12.728Z,98.89
2018-11-12T20:23:49.151Z,98.85
2018-11-12T20:26:27.524Z,98.82
2018-11-12T20:29:06.843Z,98.77
2018-11-12T20:31:47.734Z,98.72
2018-11-12T20:34:22.204Z,98.64
2018-11-12T20:37:09.796Z,98.64
2018-11-12T20:39:44.027Z,98.56
2018-11-12T20:42:22.605Z,98.46
2018-11-12T20:44:56.966Z,98.33
2018-11-12T20:47:41.171Z,98.27
2018-11-12T20:50:17.522Z,98.29
2018-11-12T20:52:57.707Z,98.33
2018-11-12T20:55:41.161Z,98.34
2018-11-12T20:58:20.990Z,98.23
2018-11-12T21:01:01.394Z,98.09
2018-11-12T21:03:35.534Z,97.89
2018-11-12T21:06:13.746Z,97.81
2018-11-12T21:08:58.118Z,97.78
2018-11-12T21:11:32.710Z,97.84
2018-11-12T21:14:07.002Z,97.89
2018-11-12T21:16:52.957Z,97.94
2018-11-12T21:19:33.672Z,97.97
2018-11-12T21:22:15.108Z,97.97
2018-11-12T21:24:51.193Z,97.95
2018-11-12T21:27:29.831Z,97.97
2018-11-12T21:30:09.308Z,98.08
2018-11-12T21:32:47.435Z,98.20
2018-11-12T21:35:24.593Z,98.31
2018-11-12T21:38:00.277Z,98.34
2018-11-12T21:40:39.798Z,98.37
2018-11-12T21:43:18.620Z,98.35
2018-11-12T21:46:01.332Z,98.35
2018-11-12T21:48:39.825Z,98.35
2018-11-12T21:51:17.387Z,98.32
2018-11-12T21:54:04.103Z,98.20
2018-11-12T21:56:40.244Z,98.05
2018-11-12T21:59:20.128Z,97.87
2018-11-12T22:02:04.427Z,97.74
2018-11-12T22:04:38.662Z,97.71
2018-11-12T22:07:16.661Z,97.77
2018-11-12T22:09:52.117Z,97.83
2018-11-12T22:12:28.661Z,97.93
2018-11-12T22:15:06.719Z,97.98
2018-11-12T22:17:43.334Z,98.07
2018-11-12T22:20:19.975Z,98.13
2018-11-12T22:22:55.501Z,98.23
2018-11-12T22:25:30.783Z,98.28
2018-11-12T22:28:07.402Z,98.29
2018-11-12T22:30:41.724Z,98.27
2018-11-12T22:33:24.826Z,98.24
2018-11-12T22:36:00.357Z,98.19
2018-11-12T22:38:38.461Z,98.16
2018-11-12T22:41:23.840Z,98.16
2018-11-12T22:44:02.139Z,98.18
2018-11-12T22:46:38.916Z,98.17
2018-11-12T22:49:15.834Z,98.14
2018-11-12T22:51:51.366Z,98.23
2018-11-12T22:54:51.181Z,98.24
2018-11-12T22:57:29.967Z,98.20
2018-11-12T23:00:28.616Z,98.18
2018-11-12T23:03:02.480Z,98.11
2018-11-12T23:05:36.745Z,98.05
2018-11-12T23:08:16.567Z,98.04
2018-11-12T23:10:50.689Z,98.01
2018-11-12T23:13:25.267Z,97.99
2018-11-12T23:15:58.947Z,98.01
2018-11-12T23:18:35.726Z,98.18
2018-11-12T23:21:18.630Z,98.31
2018-11-12T23:23:52.258Z,98.46
2018-11-12T23:26:30.414Z,98.52
2018-11-12T23:29:07.746Z,98.51
2018-11-12T23:31:42.687Z,98.47
2018-11-12T23:34:16.726Z,98.45
2018-11-12T23:36:50.833Z,98.42
2018-11-12T23:39:26.700Z,98.42
2018-11-12T23:42:02.424Z,98.38
2018-11-12T23:44:36.683Z,98.43
2018-11-12T23:47:10.444Z,98.40
2018-11-12T23:49:43.030Z,98.36
2018-11-12T23:52:17.844Z,98.41
2018-11-12T23:54:55.207Z,98.52
2018-11-12T23:57:31.157Z,98.60
